Imperial, CA

11:48 PM PDT on August 29, 2014 (GMT -0700)
Imperial County | Change Station
CLOSE
Current Station
Airport
Location: Imperial,
Elevation: -56 ft
Nearby Weather Stations
Active Advisory: Excessive Heat Warning

Elev -56 ft 32.83 °N, 115.58 °W | Updated 55 minutes ago

Clear
Clear
89 °F
Feels Like 89 °F
N
9
Wind Variable Wind from WSW

Today
High -- | Low -- °F
--% Chance of Precip.
Yesterday
High -- | Low -- °F
Precip. -- in
6:15 AM 7:10 PM
Waxing Crescent, 19% visible
Pressure 29.67 in
Visibility 10.0 miles
Clouds Clear
Dew Point 51 °F
Humidity 27%
Rainfall 0.00 in
Snow Depth Not available.
UV 0 out of 12
Pollen 7.00 out of 12
Ozone Good
PM2.5 Good
Flu Activity Not available.
METAR KIPL 300553Z AUTO 25008KT 10SM CLR 32/11 A2966 RMK AO2 SLP045 T03170106 10444 20311 50013

More Conditions Fewer Conditions

Pressure 29.67 in
Visibility 10.0 miles
Clouds Clear
Dew Point 51 °F
Humidity 27%
Rainfall 0.00 in
Snow Depth Not available.
UV 0 out of 12
Pollen 7.00 out of 12
Ozone Good
PM2.5 Good
Flu Activity Not available.
METAR KIPL 300553Z AUTO 25008KT 10SM CLR 32/11 A2966 RMK AO2 SLP045 T03170106 10444 20311 50013

More Conditions Fewer Conditions

10-Day Weather Forecast

Almanac

Astronomy

Aug. 29, 2014 Rise Set
Actual Time 6:15 AM PDT 7:10 PM PDT
Civil Twilight 5:49 AM PDT 7:36 PM PDT
Nautical Twilight 5:19 AM PDT 8:05 PM PDT
Astronomical Twilight 4:49 AM PDT 8:36 PM PDT
Moon 9:54 AM PDT (8/29) 9:26 PM PDT (8/29)
Length of Visible Light 13h 46m
Length of Day
12h 55m
Tomorrow will be 1m 55s shorter.
Waxing Crescent, 19% of the Moon is Illuminated
Aug 30
Waxing Crescent
Sep 2
First Quarter
Sep 8
Full
Sep 15
Last Quarter
Sep 24
New

Community

WunderPhotos

Upload Photos

1,748,462 photos uploaded!

Nearby

Air Quality

  Air Quality AQ Index Pollutant
Yesterday Good
OZONE
Yesterday Good
PM10
Current Good
PM2.5
Current Good
OZONE
Friday Moderate
OZONE
Saturday Moderate
OZONE
Sunday Moderate
OZONE
Monday Moderate
OZONE
Tuesday Moderate
OZONE
Wednesday Moderate
OZONE

Snow Depth

Station Depth Elevation
Leavitt Lake 0 in 9400 ft
Leavitt Meadows 0 in 7200 ft
Summit Meadow 1 in 9122 ft
Monitor Pass 0 in 8350 ft
Blue Lakes 0 in 8000 ft

Earthquake Activity

City Distance Mag. Time & Date
No recent earthquake activity has been reported nearby.
Minimum magnitude displayed is 2.5.

Coastal Water Temperatures

Place Temperature
No Stations Reporting

Nearby Weather Stations